Time;durP1;ratioP1;P1;durP2;ratioP2;P2;SDS_P1;SDS_P2;PMS_P1;PMS_P2;Temp;Humidity;BMP_temperature;BMP_pressure;BME280_temperature;BME280_humidity;BME280_pressure;Samples;Min_cycle;Max_cycle;Signal;HPM_P1;HPM_P2
2022/03/24 00:00:45;;;;;;;133.45;60.40;;;;;;;5.37;67.56;102902.91;5021986;28;20029;-67
2022/03/24 00:03:10;;;;;;;123.07;56.22;;;;;;;5.34;66.61;102903.22;5022926;28;20029;-66
2022/03/24 00:05:36;;;;;;;125.45;59.03;;;;;;;5.36;67.55;102901.19;5022221;28;20051;-67
2022/03/24 00:08:01;;;;;;;129.57;60.22;;;;;;;5.35;67.47;102904.94;5023418;28;20072;-67
2022/03/24 00:10:27;;;;;;;126.10;59.72;;;;;;;5.28;68.07;102909.25;5020593;28;20160;-67
2022/03/24 00:12:52;;;;;;;112.63;55.25;;;;;;;5.21;69.21;102901.66;5022358;28;20096;-67
2022/03/24 00:15:18;;;;;;;117.05;56.72;;;;;;;5.19;68.83;102900.94;5022770;28;20079;-67
2022/03/24 00:17:43;;;;;;;119.65;56.42;;;;;;;5.17;68.44;102897.53;5022045;28;20058;-67
2022/03/24 00:20:11;;;;;;;119.45;56.03;;;;;;;5.15;67.88;102899.50;5022235;28;20084;-67
2022/03/24 00:22:37;;;;;;;118.35;57.03;;;;;;;5.12;68.50;102899.81;5023427;28;20033;-67
2022/03/24 00:25:02;;;;;;;107.50;55.58;;;;;;;5.06;69.69;102894.06;5021278;28;20080;-67
2022/03/24 00:27:27;;;;;;;119.82;56.70;;;;;;;5.03;71.16;102899.81;5021113;28;20052;-67
2022/03/24 00:29:53;;;;;;;122.18;56.90;;;;;;;4.97;70.46;102892.19;5022857;28;20405;-68
2022/03/24 00:32:18;;;;;;;110.82;54.67;;;;;;;4.92;71.24;102892.66;5022140;28;20456;-67
2022/03/24 00:34:45;;;;;;;121.93;57.88;;;;;;;4.88;70.33;102886.63;5021709;28;20034;-67
2022/03/24 00:37:11;;;;;;;112.60;55.88;;;;;;;4.89;69.95;102893.78;5022285;28;20021;-66
2022/03/24 00:39:36;;;;;;;116.45;55.95;;;;;;;4.87;69.60;102887.66;5019988;28;20017;-67
2022/03/24 00:42:04;;;;;;;106.80;55.25;;;;;;;4.83;70.46;102893.50;5018760;28;20029;-67
2022/03/24 00:44:29;;;;;;;;;;;;;;;4.97;67.96;102893.09;5022728;28;20029;-67
2022/03/24 00:46:55;;;;;;;110.77;54.67;;;;;;;4.77;70.40;102889.50;5021179;28;19986;-67
2022/03/24 00:49:21;;;;;;;117.70;55.22;;;;;;;4.77;70.79;102889.50;5022546;28;20026;-67
2022/03/24 00:51:48;;;;;;;104.00;51.35;;;;;;;4.74;71.33;102892.50;5021108;28;20132;-67
2022/03/24 00:54:14;;;;;;;95.70;49.17;;;;;;;4.71;71.39;102890.03;5021158;28;20154;-67
2022/03/24 00:56:40;;;;;;;96.90;50.42;;;;;;;4.69;71.19;102887.47;5022692;28;20030;-67
2022/03/24 00:59:05;;;;;;;96.70;50.33;;;;;;;4.63;72.01;102882.59;5022726;28;20614;-67
2022/03/24 01:01:30;;;;;;;105.63;51.33;;;;;;;4.66;71.05;102876.88;5021308;28;20518;-67
2022/03/24 01:03:56;;;;;;;101.88;50.38;;;;;;;4.72;70.56;102882.78;5022675;28;20033;-67
2022/03/24 01:06:25;;;;;;;93.75;47.70;;;;;;;4.72;71.27;102880.03;5020431;28;20694;-67
2022/03/24 01:08:50;;;;;;;94.95;49.40;;;;;;;4.69;70.98;102875.72;5024692;28;20041;-67
2022/03/24 01:11:16;;;;;;;97.20;48.63;;;;;;;4.73;70.66;102876.31;5026376;28;20092;-67
2022/03/24 01:13:43;;;;;;;91.43;48.03;;;;;;;4.67;69.81;102862.28;5026350;28;20046;-67
2022/03/24 01:16:09;;;;;;;86.85;46.15;;;;;;;4.65;70.95;102872.44;5024628;28;20018;-67
2022/03/24 01:18:37;;;;;;;89.53;46.85;;;;;;;4.55;72.01;102867.97;5027179;28;20152;-67
2022/03/24 01:21:05;;;;;;;92.00;46.77;;;;;;;4.49;72.99;102871.28;5025317;28;20104;-67
2022/03/24 01:23:31;;;;;;;92.00;47.45;;;;;;;4.53;72.74;102876.28;5024712;28;21180;-67
2022/03/24 01:26:00;;;;;;;91.90;48.22;;;;;;;4.52;71.26;102869.13;5025966;28;20021;-67
2022/03/24 01:28:27;;;;;;;88.65;46.17;;;;;;;4.48;72.50;102866.84;5026108;28;20026;-67
2022/03/24 01:30:54;;;;;;;89.10;47.85;;;;;;;4.38;72.84;102864.09;5025530;28;20028;-67
2022/03/24 01:33:19;;;;;;;93.05;47.80;;;;;;;4.35;73.14;102861.66;5025025;28;20729;-67
2022/03/24 01:35:44;;;;;;;86.47;46.55;;;;;;;4.35;72.97;102861.66;5024919;28;20037;-67
2022/03/24 01:38:10;;;;;;;84.40;46.50;;;;;;;4.30;73.02;102858.50;5024313;28;20074;-67
2022/03/24 01:40:36;;;;;;;90.28;50.88;;;;;;;4.29;72.75;102859.50;5025215;28;20026;-68
2022/03/24 01:43:01;;;;;;;89.72;48.22;;;;;;;4.32;72.69;102854.63;5026442;28;20033;-67
2022/03/24 01:45:26;;;;;;;89.10;49.38;;;;;;;4.33;72.74;102847.34;5025619;28;20546;-67
2022/03/24 01:47:52;;;;;;;90.55;50.22;;;;;;;4.31;72.80;102849.31;5024320;28;20025;-67
2022/03/24 01:50:18;;;;;;;91.70;49.70;;;;;;;4.29;73.13;102840.44;5024818;28;20561;-67
2022/03/24 01:52:44;;;;;;;91.00;48.92;;;;;;;4.26;73.16;102838.88;5025560;28;20028;-67
2022/03/24 01:55:11;;;;;;;94.28;48.80;;;;;;;4.22;73.41;102842.88;5024295;28;20030;-67
2022/03/24 01:57:38;;;;;;;98.82;49.03;;;;;;;4.19;74.03;102845.00;5025988;28;20095;-67
2022/03/24 02:00:06;;;;;;;90.47;49.15;;;;;;;4.14;73.95;102843.56;5025019;28;20017;-67
2022/03/24 02:02:32;;;;;;;90.50;49.92;;;;;;;4.14;73.43;102832.69;5024203;28;20112;-67
2022/03/24 02:04:57;;;;;;;83.75;47.65;;;;;;;4.08;73.95;102844.13;5024561;28;20121;-68
2022/03/24 02:07:22;;;;;;;82.43;46.92;;;;;;;3.97;74.33;102829.81;5024721;28;20717;-67
2022/03/24 02:09:48;;;;;;;91.35;49.15;;;;;;;3.95;74.27;102829.06;5023924;28;20080;-67
2022/03/24 02:12:14;;;;;;;85.35;47.00;;;;;;;3.95;74.65;102835.34;5024614;28;20099;-67
2022/03/24 02:14:40;;;;;;;85.65;46.70;;;;;;;3.92;74.91;102843.81;5025250;28;20559;-67
2022/03/24 02:17:06;;;;;;;89.03;47.42;;;;;;;3.87;74.89;102841.50;5025138;28;20026;-67
2022/03/24 02:19:31;;;;;;;88.43;47.85;;;;;;;3.85;75.16;102837.19;5022145;28;20036;-68
2022/03/24 02:22:05;;;;;;;93.60;49.40;;;;;;;3.80;75.06;102834.00;5025357;28;20800;-67
2022/03/24 02:24:31;;;;;;;96.13;51.45;;;;;;;3.87;74.81;102832.47;5024252;28;20046;-67
2022/03/24 02:26:58;;;;;;;97.82;51.83;;;;;;;3.89;74.55;102833.19;5023379;28;20099;-67
2022/03/24 02:29:25;;;;;;;86.75;49.25;;;;;;;3.88;74.95;102837.78;5025030;28;20317;-67
2022/03/24 02:31:52;;;;;;;97.10;51.17;;;;;;;3.84;75.04;102835.47;5024505;28;20018;-67
2022/03/24 02:34:37;;;;;;;99.05;52.15;;;;;;;3.77;75.06;102832.44;5024244;28;20171;-67
2022/03/24 02:37:14;;;;;;;97.35;51.88;;;;;;;3.77;74.98;102831.59;5024634;28;20022;-67
2022/03/24 02:39:44;;;;;;;101.20;54.83;;;;;;;3.81;74.47;102839.34;5023772;28;20496;-67
2022/03/24 02:42:15;;;;;;;91.50;49.22;;;;;;;3.77;75.57;102839.75;5024380;28;20417;-66
2022/03/24 02:44:43;;;;;;;87.40;49.72;;;;;;;3.70;75.46;102835.84;5025113;28;20029;-67
2022/03/24 02:47:10;;;;;;;;;;;;;;;3.78;72.92;102834.16;5013740;28;20041;-68
2022/03/24 02:49:36;;;;;;;93.10;51.58;;;;;;;3.62;75.18;102831.97;5022852;28;19916;-67
2022/03/24 02:52:02;;;;;;;86.80;47.95;;;;;;;3.60;75.79;102838.53;5024902;28;20035;-67
2022/03/24 02:54:29;;;;;;;100.55;52.95;;;;;;;3.54;75.85;102836.34;5023939;28;20316;-67
2022/03/24 02:56:55;;;;;;;98.97;53.83;;;;;;;3.60;75.72;102831.25;5043349;23;20049;-67
2022/03/24 02:59:20;;;;;;;100.03;51.80;;;;;;;3.58;75.97;102822.34;5042926;28;20419;-67
2022/03/24 03:02:00;;;;;;;104.43;55.63;;;;;;;3.60;75.32;102838.53;5043901;28;20032;-67
2022/03/24 03:04:27;;;;;;;103.15;53.45;;;;;;;3.54;76.06;102834.47;5043441;28;20079;-67
2022/03/24 03:06:54;;;;;;;94.57;51.25;;;;;;;3.56;76.23;102837.94;5043441;28;20025;-67
2022/03/24 03:09:21;;;;;;;94.68;49.22;;;;;;;3.50;76.21;102843.94;5043507;28;20736;-67
2022/03/24 03:11:47;;;;;;;81.50;44.75;;;;;;;3.46;75.79;102826.16;5043899;28;20475;-67
2022/03/24 03:14:14;;;;;;;85.15;45.55;;;;;;;3.32;76.81;102834.66;5044056;28;20033;-67
2022/03/24 03:16:40;;;;;;;91.53;47.25;;;;;;;3.25;76.94;102841.63;5043822;28;20075;-67
2022/03/24 03:19:08;;;;;;;86.25;48.83;;;;;;;3.24;77.00;102831.75;5043013;28;20025;-67
2022/03/24 03:21:35;;;;;;;94.40;50.00;;;;;;;3.22;77.11;102831.03;5043303;28;20360;-67
2022/03/24 03:24:00;;;;;;;88.32;48.63;;;;;;;3.15;77.47;102828.00;5044173;28;20028;-67
2022/03/24 03:26:25;;;;;;;92.70;49.92;;;;;;;3.13;77.60;102833.53;5041564;28;20033;-67
2022/03/24 03:28:53;;;;;;;92.13;49.22;;;;;;;3.10;77.55;102825.69;5044178;28;20107;-67
2022/03/24 03:31:22;;;;;;;89.70;49.30;;;;;;;3.08;78.39;102833.09;5042138;28;20033;-67
2022/03/24 03:33:48;;;;;;;83.35;46.38;;;;;;;3.11;78.45;102831.97;5042358;28;20390;-67
2022/03/24 03:36:13;;;;;;;94.03;51.75;;;;;;;3.13;77.87;102830.81;5042349;28;20025;-67
2022/03/24 03:38:39;;;;;;;92.68;50.35;;;;;;;3.16;77.91;102832.44;5042315;28;20036;-67
2022/03/24 03:41:05;;;;;;;90.65;49.95;;;;;;;3.15;78.02;102827.16;5027559;28;20096;-67
2022/03/24 03:43:31;;;;;;;96.65;51.10;;;;;;;3.16;77.65;102828.84;5043457;28;20025;-67
2022/03/24 03:45:57;;;;;;;96.85;51.85;;;;;;;3.19;77.83;102834.84;5043380;28;20059;-67
2022/03/24 03:48:22;;;;;;;95.45;51.50;;;;;;;3.16;77.49;102832.44;5042227;28;20519;-67
2022/03/24 03:50:48;;;;;;;96.97;50.08;;;;;;;3.10;77.30;102838.41;5042033;28;20082;-67
2022/03/24 03:53:14;;;;;;;100.57;53.33;;;;;;;3.10;77.32;102836.53;5043791;28;20375;-66
2022/03/24 03:55:39;;;;;;;102.40;52.00;;;;;;;3.10;77.55;102831.13;5043088;28;20025;-67
2022/03/24 03:58:05;;;;;;;99.80;54.50;;;;;;;3.12;77.37;102833.69;5043263;28;20040;-67
2022/03/24 04:03:15;;;;;;;97.10;52.53;;;;;;;3.03;77.51;102829.91;5042672;28;20040;-67
2022/03/24 04:05:41;;;;;;;79.75;44.55;;;;;;;2.93;78.73;102847.97;5041962;28;20024;-67
2022/03/24 04:08:09;;;;;;;75.75;42.42;;;;;;;2.80;79.30;102841.91;5043317;28;20029;-67
2022/03/24 04:10:34;;;;;;;85.05;45.50;;;;;;;2.71;79.58;102840.81;5043677;28;20029;-67
2022/03/24 04:13:00;;;;;;;85.10;46.92;;;;;;;2.68;79.74;102842.91;5042416;28;20091;-67
2022/03/24 04:15:26;;;;;;;88.78;46.78;;;;;;;2.67;79.66;102844.78;5042909;28;20036;-67
2022/03/24 04:17:52;;;;;;;81.60;45.72;;;;;;;2.64;79.55;102844.19;5041322;28;20826;-67
2022/03/24 04:20:20;;;;;;;90.53;49.65;;;;;;;2.64;79.61;102841.47;5041416;28;20017;-67
2022/03/24 04:22:50;;;;;;;95.50;50.65;;;;;;;2.65;79.51;102848.63;5043182;28;20025;-67
2022/03/24 04:25:16;;;;;;;96.20;52.08;;;;;;;2.62;79.62;102851.59;5043041;28;20116;-67
2022/03/24 04:27:42;;;;;;;90.65;49.25;;;;;;;2.57;80.33;102844.69;5042495;28;20120;-68
2022/03/24 04:30:08;;;;;;;83.10;46.50;;;;;;;2.54;80.62;102841.41;5042873;28;20594;-67
2022/03/24 04:32:33;;;;;;;94.20;48.25;;;;;;;2.52;81.03;102841.50;5040266;28;20406;-67
2022/03/24 04:34:59;;;;;;;87.38;47.33;;;;;;;2.50;81.25;102838.06;5042310;28;20029;-67
2022/03/24 04:37:25;;;;;;;94.00;48.92;;;;;;;2.50;81.46;102838.06;5041983;28;20041;-67
2022/03/24 04:39:50;;;;;;;99.25;50.42;;;;;;;2.51;81.51;102838.94;5043400;28;20049;-67
2022/03/24 04:42:16;;;;;;;94.00;48.58;;;;;;;2.45;80.63;102844.88;5041812;28;20139;-67
2022/03/24 04:44:41;;;;;;;105.72;51.45;;;;;;;2.40;81.15;102844.41;5042458;28;20029;-67
2022/03/24 04:47:06;;;;;;;94.93;46.50;;;;;;;2.36;81.85;102835.66;5042476;28;20341;-67
2022/03/24 04:49:32;;;;;;;108.47;50.97;;;;;;;2.33;81.77;102846.75;5038778;28;20040;-67
2022/03/24 04:51:57;;;;;;;104.82;51.92;;;;;;;2.38;81.78;102852.63;5039922;28;20070;-67
2022/03/24 04:54:22;;;;;;;104.00;52.78;;;;;;;2.34;81.61;102845.78;5041042;28;20051;-67
2022/03/24 04:56:48;;;;;;;107.28;53.20;;;;;;;2.30;81.62;102845.16;5042003;28;20702;-67
2022/03/24 04:59:13;;;;;;;101.93;53.75;;;;;;;2.30;81.90;102842.44;5042053;28;20029;-67
2022/03/24 05:01:38;;;;;;;98.50;52.90;;;;;;;2.32;81.53;102850.44;5040867;28;20025;-66
2022/03/24 05:04:04;;;;;;;100.05;52.53;;;;;;;2.31;81.16;102849.59;5041426;28;20029;-67
2022/03/24 05:06:31;;;;;;;99.93;51.30;;;;;;;2.26;81.62;102846.41;5040004;28;20570;-67
2022/03/24 05:08:56;;;;;;;108.60;53.10;;;;;;;2.23;81.65;102854.81;5040282;28;20116;-67
2022/03/24 05:11:22;;;;;;;106.28;50.42;;;;;;;2.26;82.11;102851.81;5040793;28;20116;-67
2022/03/24 05:13:47;;;;;;;103.88;51.60;;;;;;;2.24;82.19;102844.81;5041199;28;20033;-68
2022/03/24 05:16:13;;;;;;;107.18;52.17;;;;;;;2.19;82.24;102850.63;5041937;28;20029;-68
2022/03/24 05:18:38;;;;;;;108.45;53.70;;;;;;;2.17;82.61;102857.13;5040249;28;20032;-68
2022/03/24 05:21:04;;;;;;;101.65;48.63;;;;;;;2.13;82.62;102851.13;5041832;28;20082;-67
2022/03/24 05:23:30;;;;;;;90.75;49.45;;;;;;;2.10;82.96;102862.22;5040049;28;20087;-67
2022/03/24 05:25:56;;;;;;;96.95;50.05;;;;;;;2.10;82.80;102855.94;5040528;28;20029;-67
2022/03/24 05:28:21;;;;;;;105.57;51.33;;;;;;;2.11;82.53;102852.22;5040799;28;20044;-67
2022/03/24 05:30:47;;;;;;;100.47;52.42;;;;;;;2.08;82.33;102854.22;5041164;28;20036;-67
2022/03/24 05:33:13;;;;;;;112.00;53.10;;;;;;;2.08;82.25;102856.94;5040617;28;20505;-67
2022/03/24 05:35:38;;;;;;;111.07;57.63;;;;;;;2.10;82.59;102862.22;5039536;28;20021;-66
2022/03/24 05:38:05;;;;;;;112.45;56.80;;;;;;;2.10;82.33;102861.34;5041056;28;20031;-67
2022/03/24 05:40:31;;;;;;;89.28;47.58;;;;;;;2.05;82.60;102861.72;5040533;28;20045;-67
2022/03/24 05:42:57;;;;;;;92.15;47.15;;;;;;;1.98;82.97;102858.66;5038904;28;20534;-67
2022/03/24 05:45:22;;;;;;;91.07;48.38;;;;;;;1.95;82.84;102861.63;5039178;28;20025;-67
2022/03/24 05:47:47;;;;;;;96.47;51.42;;;;;;;1.92;83.09;102853.72;5041325;28;20029;-67
2022/03/24 05:50:13;;;;;;;93.00;49.80;;;;;;;1.92;83.53;102859.13;5040164;28;20029;-67
2022/03/24 05:52:39;;;;;;;99.38;50.78;;;;;;;1.94;83.69;102867.16;5040162;28;20028;-68
2022/03/24 05:55:05;;;;;;;92.50;49.72;;;;;;;1.97;83.61;102867.75;5043730;28;20035;-67
2022/03/24 05:57:31;;;;;;;94.38;49.05;;;;;;;2.00;83.31;102859.38;5043636;28;20040;-68
2022/03/24 05:59:57;;;;;;;95.38;48.50;;;;;;;2.05;83.15;102859.00;5043656;28;20017;-67
2022/03/24 06:02:22;;;;;;;97.97;50.83;;;;;;;2.09;83.15;102860.50;5044159;28;20529;-67
2022/03/24 06:04:48;;;;;;;100.72;50.25;;;;;;;2.12;83.15;102860.22;5043608;28;20430;-68
2022/03/24 06:07:14;;;;;;;99.28;51.67;;;;;;;2.18;82.93;102857.03;5041908;28;20157;-67
2022/03/24 06:09:40;;;;;;;107.95;54.75;;;;;;;2.26;82.93;102867.22;5042702;28;20171;-68
2022/03/24 06:12:08;;;;;;;106.93;54.85;;;;;;;2.35;82.56;102869.19;5043885;28;20496;-67
2022/03/24 06:14:34;;;;;;;;;;;;;;;2.49;80.71;102866.19;5044739;28;20037;-68
2022/03/24 06:16:59;;;;;;;106.10;53.30;;;;;;;2.52;81.42;102871.34;5042742;28;19924;-67
2022/03/24 06:19:24;;;;;;;104.38;53.65;;;;;;;2.64;81.62;102871.31;5042445;28;20029;-67
2022/03/24 06:21:50;;;;;;;100.63;53.55;;;;;;;2.77;80.85;102867.41;5043267;28;20029;-67
2022/03/24 06:24:15;;;;;;;101.93;53.88;;;;;;;2.89;80.30;102872.78;5042959;28;20048;-67
2022/03/24 06:26:40;;;;;;;111.85;57.15;;;;;;;3.14;79.44;102869.69;5043878;28;20023;-67
2022/03/24 06:29:10;;;;;;;108.85;55.08;;;;;;;3.33;78.87;102872.53;5044506;28;20380;-67
2022/03/24 06:31:36;;;;;;;104.68;57.15;;;;;;;3.39;77.74;102866.56;5043378;28;20037;-67
2022/03/24 06:34:01;;;;;;;108.00;58.92;;;;;;;3.49;78.39;102871.19;5042760;28;20032;-67
2022/03/24 06:36:27;;;;;;;107.82;57.55;;;;;;;3.67;78.08;102866.03;5042840;28;20036;-67
2022/03/24 06:38:52;;;;;;;110.85;55.72;;;;;;;3.85;78.19;102865.25;5042162;28;20106;-68
2022/03/24 06:41:18;;;;;;;110.50;55.83;;;;;;;4.02;77.29;102865.59;5042470;28;20021;-67
2022/03/24 06:43:43;;;;;;;106.95;56.15;;;;;;;4.14;77.34;102868.03;5043834;28;20072;-67
2022/03/24 06:46:09;;;;;;;110.93;58.78;;;;;;;4.24;76.90;102870.78;5043238;28;20025;-68
2022/03/24 06:48:35;;;;;;;106.38;57.22;;;;;;;4.34;77.29;102865.38;5043164;28;20110;-68
2022/03/24 06:51:00;;;;;;;106.25;57.33;;;;;;;4.49;75.41;102866.69;5042668;28;20033;-68
2022/03/24 06:53:26;;;;;;;108.47;59.22;;;;;;;4.66;76.25;102871.44;5043126;28;20055;-68
2022/03/24 06:55:51;;;;;;;110.72;58.25;;;;;;;4.75;75.99;102872.44;5042795;28;20574;-68
2022/03/24 06:58:17;;;;;;;113.07;57.92;;;;;;;4.87;77.03;102874.03;5042573;28;20489;-67
2022/03/24 07:00:42;;;;;;;102.35;56.38;;;;;;;5.02;78.40;102877.19;5043202;28;20107;-67
2022/03/24 07:03:07;;;;;;;103.68;55.50;;;;;;;5.20;79.35;102877.28;5043191;28;20395;-68
2022/03/24 07:05:33;;;;;;;102.47;55.90;;;;;;;5.49;78.49;102866.34;5041642;28;20045;-68
2022/03/24 07:07:58;;;;;;;99.90;54.28;;;;;;;5.72;77.97;102875.00;5043124;28;20080;-68
2022/03/24 07:10:23;;;;;;;118.13;59.25;;;;;;;6.27;77.14;102864.13;5042469;28;20083;-68
2022/03/24 07:12:49;;;;;;;108.63;55.13;;;;;;;6.78;75.04;102869.97;5043071;28;20029;-68
2022/03/24 07:15:15;;;;;;;101.10;54.78;;;;;;;7.23;72.65;102875.31;5042260;28;20444;-68
2022/03/24 07:17:41;;;;;;;100.25;53.42;;;;;;;7.56;70.58;102873.69;5042570;28;20341;-67
2022/03/24 07:20:07;;;;;;;93.25;53.17;;;;;;;7.80;68.25;102868.31;5042104;28;20017;-67
2022/03/24 07:22:36;;;;;;;101.75;55.08;;;;;;;8.07;66.27;102864.53;5041880;28;20021;-68
2022/03/24 07:25:03;;;;;;;100.68;56.53;;;;;;;8.25;65.71;102872.63;5043019;28;20025;-67
2022/03/24 07:27:28;;;;;;;97.80;54.67;;;;;;;8.39;64.45;102864.84;5042016;28;20159;-68
2022/03/24 07:29:53;;;;;;;93.07;55.40;;;;;;;8.71;63.44;102869.53;5040544;28;20029;-67
2022/03/24 07:32:19;;;;;;;100.85;55.55;;;;;;;9.28;62.46;102872.31;5040965;28;20056;-67
2022/03/24 07:34:45;;;;;;;91.22;53.25;;;;;;;9.82;61.14;102875.28;5041658;28;20051;-68
2022/03/24 07:37:10;;;;;;;91.85;52.08;;;;;;;10.51;58.00;102861.78;5041826;28;20028;-68
2022/03/24 07:39:35;;;;;;;88.90;51.58;;;;;;;11.57;55.58;102866.44;5042943;28;20048;-67
2022/03/24 07:42:01;;;;;;;87.15;50.85;;;;;;;12.03;52.85;102869.03;5042135;28;20013;-67
2022/03/24 07:44:26;;;;;;;81.07;48.38;;;;;;;12.29;52.12;102871.28;5042143;28;20029;-67
2022/03/24 07:46:51;;;;;;;81.45;49.83;;;;;;;12.73;50.48;102874.78;5042150;28;20394;-67
2022/03/24 07:49:16;;;;;;;84.65;49.97;;;;;;;13.44;48.99;102880.34;5041151;28;20029;-67
2022/03/24 07:51:43;;;;;;;79.45;48.58;;;;;;;13.73;47.28;102875.66;5040035;28;20106;-68
2022/03/24 07:54:10;;;;;;;83.70;50.40;;;;;;;14.00;46.92;102882.22;5041601;28;20467;-68
2022/03/24 07:56:37;;;;;;;80.15;49.22;;;;;;;14.12;45.85;102886.09;5042455;28;20048;-67
2022/03/24 07:59:04;;;;;;;82.90;48.70;;;;;;;14.73;44.70;102875.09;5040776;28;20032;-67
2022/03/24 08:01:32;;;;;;;85.50;50.65;;;;;;;15.01;43.79;102883.25;5041494;28;20029;-67
2022/03/24 08:04:00;;;;;;;84.80;50.70;;;;;;;15.07;42.99;102878.78;5041084;28;20567;-67
2022/03/24 08:06:27;;;;;;;91.80;53.38;;;;;;;14.99;42.32;102882.59;5040112;28;20291;-67
2022/03/24 08:08:52;;;;;;;85.00;50.92;;;;;;;14.82;43.23;102883.22;5042341;28;20021;-67
2022/03/24 08:11:18;;;;;;;90.95;53.53;;;;;;;14.56;43.82;102882.09;5039153;28;20029;-67
2022/03/24 08:13:47;;;;;;;90.13;54.40;;;;;;;14.70;43.65;102886.59;5041711;28;20083;-67
2022/03/24 08:16:12;;;;;;;96.20;54.67;;;;;;;14.78;42.86;102882.78;5041291;28;20607;-67
2022/03/24 08:18:38;;;;;;;99.70;53.95;;;;;;;14.55;42.72;102891.44;5039251;28;20025;-68
2022/03/24 08:21:03;;;;;;;84.50;53.80;;;;;;;14.51;43.86;102887.38;5041683;28;20079;-67
2022/03/24 08:23:28;;;;;;;93.25;52.75;;;;;;;14.30;44.14;102891.09;5039440;28;20040;-67
2022/03/24 08:25:54;;;;;;;95.28;53.75;;;;;;;14.43;43.36;102899.44;5040134;28;20052;-68
2022/03/24 08:28:19;;;;;;;84.60;50.72;;;;;;;14.62;41.56;102891.47;5040988;28;20128;-67
2022/03/24 08:30:47;;;;;;;88.93;50.72;;;;;;;14.87;40.83;102898.13;5041783;28;20476;-67
2022/03/24 08:33:13;;;;;;;87.50;50.22;;;;;;;15.47;38.93;102898.19;5041101;28;20025;-67
2022/03/24 08:35:41;;;;;;;81.35;48.83;;;;;;;16.42;37.16;102905.03;5040649;28;20021;-67
2022/03/24 08:38:07;;;;;;;84.50;48.80;;;;;;;17.06;35.18;102900.47;5041707;28;20049;-67
2022/03/24 08:40:33;;;;;;;82.45;49.90;;;;;;;16.99;35.63;102897.75;5041075;28;20281;-67
2022/03/24 08:42:58;;;;;;;81.07;48.78;;;;;;;17.35;36.00;102898.97;5041108;28;20558;-67
2022/03/24 08:45:23;;;;;;;83.78;47.50;;;;;;;17.51;34.16;102900.31;5041595;28;20024;-67
2022/03/24 08:47:49;;;;;;;80.63;48.75;;;;;;;17.74;34.71;102902.47;5041014;28;20037;-66
2022/03/24 08:50:14;;;;;;;81.80;48.05;;;;;;;17.85;34.37;102905.38;5038560;28;20037;-67
2022/03/24 08:52:43;;;;;;;80.82;48.80;;;;;;;17.78;34.33;102912.91;5040898;28;20118;-67
2022/03/24 08:55:09;;;;;;;75.28;48.08;;;;;;;17.63;32.63;102907.69;5041198;28;20487;-65
2022/03/24 08:57:37;;;;;;;79.30;48.78;;;;;;;17.53;34.93;102907.34;5039595;28;20041;-66
2022/03/24 09:00:12;;;;;;;84.68;48.45;;;;;;;17.46;34.83;102901.00;5040945;28;20118;-66
2022/03/24 09:02:41;;;;;;;80.80;49.80;;;;;;;17.83;36.37;102909.44;5041400;28;20367;-67
2022/03/24 09:05:08;;;;;;;82.88;48.53;;;;;;;18.67;34.40;102908.69;5040339;28;20168;-66
2022/03/24 09:07:33;;;;;;;76.05;46.80;;;;;;;19.99;31.97;102904.88;5040420;28;20029;-67
2022/03/24 09:09:59;;;;;;;71.65;46.50;;;;;;;21.55;28.59;102909.41;5041256;28;20036;-66
2022/03/24 09:12:24;;;;;;;70.38;46.28;;;;;;;23.37;27.98;102909.22;5040690;28;20060;-66
2022/03/24 09:14:50;;;;;;;70.25;45.38;;;;;;;24.67;24.83;102906.69;5040855;28;20383;-67
2022/03/24 09:17:15;;;;;;;69.88;44.63;;;;;;;25.92;23.86;102904.56;5040704;28;20507;-67
2022/03/24 09:19:41;;;;;;;74.97;44.15;;;;;;;26.28;22.86;102910.94;5040249;28;20032;-67
2022/03/24 09:22:06;;;;;;;72.43;45.50;;;;;;;26.83;21.94;102904.22;5040905;28;20060;-66
2022/03/24 09:24:33;;;;;;;65.43;43.22;;;;;;;27.16;21.66;102913.88;5040269;28;20280;-67
2022/03/24 09:26:58;;;;;;;76.00;48.63;;;;;;;27.12;20.43;102910.00;5040673;28;20065;-66
2022/03/24 09:29:24;;;;;;;73.55;46.03;;;;;;;27.52;19.81;102907.09;5042921;28;20056;-67
2022/03/24 09:31:50;;;;;;;77.65;47.47;;;;;;;28.30;19.69;102912.53;5044471;28;20444;-66
2022/03/24 09:34:15;;;;;;;80.90;50.42;;;;;;;28.84;19.81;102904.75;5043452;28;20482;-66
2022/03/24 09:36:41;;;;;;;78.28;48.38;;;;;;;29.57;16.89;102906.22;5044238;28;20348;-66
2022/03/24 09:39:10;;;;;;;69.95;43.53;;;;;;;29.47;17.10;102901.53;5044785;28;20506;-66
2022/03/24 09:41:36;;;;;;;76.28;43.03;;;;;;;28.98;17.28;102904.88;5044881;28;20021;-66
2022/03/24 09:44:03;;;;;;;75.05;48.53;;;;;;;28.44;17.25;102907.88;5044837;28;20025;-66
2022/03/24 09:46:29;;;;;;;73.85;46.70;;;;;;;28.61;18.67;102910.19;5043603;28;20037;-66
2022/03/24 09:48:55;;;;;;;72.93;44.13;;;;;;;28.88;19.49;102912.34;5043479;28;20530;-66
2022/03/24 09:51:29;;;;;;;69.53;44.67;;;;;;;28.94;17.71;102901.81;5043650;28;20079;-66
2022/03/24 09:53:54;;;;;;;70.20;43.08;;;;;;;29.25;15.75;102901.31;5043865;28;20249;-66
2022/03/24 09:56:19;;;;;;;66.60;44.55;;;;;;;29.31;17.17;102903.78;5044081;28;20547;-66
2022/03/24 09:58:48;;;;;;;54.30;38.08;;;;;;;29.81;17.02;102906.91;5044191;28;20067;-66
2022/03/24 10:01:13;;;;;;;59.67;40.85;;;;;;;30.11;14.97;102907.44;5043615;28;20332;-65
2022/03/24 10:03:39;;;;;;;52.75;30.83;;;;;;;29.86;12.05;102901.13;5043751;28;20021;-64
2022/03/24 10:06:07;;;;;;;51.33;35.70;;;;;;;29.67;16.25;102900.34;5044114;28;20056;-65
2022/03/24 10:08:33;;;;;;;50.33;35.80;;;;;;;30.27;14.17;102906.00;5043937;28;20025;-65
2022/03/24 10:11:09;;;;;;;47.47;33.78;;;;;;;30.93;14.27;102898.88;5043753;28;20025;-65
2022/03/24 10:13:44;;;;;;;47.00;34.08;;;;;;;30.32;14.27;102905.06;5044157;28;20090;-65
2022/03/24 10:16:12;;;;;;;45.03;33.65;;;;;;;30.07;14.11;102895.91;5043582;28;20017;-64
2022/03/24 10:18:55;;;;;;;47.65;34.63;;;;;;;29.37;14.45;102894.06;5043121;28;20021;-66
2022/03/24 10:21:22;;;;;;;47.30;34.47;;;;;;;29.79;14.93;102892.19;5043177;28;20154;-66
2022/03/24 10:23:48;;;;;;;47.17;35.08;;;;;;;30.56;14.93;102891.47;5043702;28;20021;-65
2022/03/24 10:26:13;;;;;;;95.38;41.20;;;;;;;30.73;14.08;102888.03;5043462;28;20112;-66
2022/03/24 10:28:38;;;;;;;92.63;39.85;;;;;;;30.64;13.11;102895.56;5043610;28;20483;-65
2022/03/24 10:31:03;;;;;;;51.60;36.00;;;;;;;30.56;13.94;102888.63;5043827;28;20033;-66
2022/03/24 10:33:30;;;;;;;48.90;33.67;;;;;;;30.14;13.97;102889.84;5042570;28;20365;-66
2022/03/24 10:36:10;;;;;;;51.22;37.67;;;;;;;28.58;15.01;102887.31;5043814;28;20438;-66
2022/03/24 10:38:39;;;;;;;50.97;38.25;;;;;;;28.19;15.30;102894.88;5043882;28;20017;-66
2022/03/24 10:41:20;;;;;;;53.47;35.95;;;;;;;28.13;15.41;102878.25;5043069;28;20048;-67
2022/03/24 10:43:49;;;;;;;52.67;38.85;;;;;;;28.22;16.65;102887.75;5043327;28;20305;-67
2022/03/24 10:46:18;;;;;;;51.72;38.28;;;;;;;29.25;16.26;102884.34;5042975;28;20029;-66
2022/03/24 10:48:45;;;;;;;53.83;36.95;;;;;;;29.33;15.54;102876.00;5042203;28;20111;-67
2022/03/24 10:51:10;;;;;;;56.83;37.72;;;;;;;29.55;14.58;102871.69;5042654;28;20029;-66
2022/03/24 10:53:41;;;;;;;53.85;35.47;;;;;;;29.49;14.94;102879.41;5043690;28;20386;-67
2022/03/24 10:56:12;;;;;;;49.70;34.75;;;;;;;29.25;14.77;102878.69;5043025;28;20056;-66
2022/03/24 10:58:42;;;;;;;48.28;32.97;;;;;;;28.28;15.31;102880.91;5043679;28;20297;-67
2022/03/24 11:01:11;;;;;;;41.70;27.48;;;;;;;27.89;13.81;102879.13;5043014;28;20020;-67
2022/03/24 11:03:36;;;;;;;45.97;31.27;;;;;;;27.45;14.58;102873.59;5042400;28;20052;-67
2022/03/24 11:06:13;;;;;;;42.40;31.65;;;;;;;28.33;15.36;102868.69;5043214;28;20431;-67
2022/03/24 11:08:40;;;;;;;43.78;32.80;;;;;;;28.55;15.14;102874.66;5043379;28;20033;-65
2022/03/24 11:11:14;;;;;;;53.37;31.83;;;;;;;29.07;14.25;102881.25;5042880;28;20021;-67
2022/03/24 11:13:42;;;;;;;45.13;32.58;;;;;;;30.15;14.34;102874.50;5042851;28;20033;-66